pixelpapercraft.com alexa rank chart, pixelpapercraft.com alexa rank daily changes

pixelpapercraft.com alexa rank chart, pixelpapercraft.com alexa rank daily changes

pixelpapercraft.com
Actual rank:
112 860

RANK HISTORY

Date Rank Diff
2016/12/06 112 860 -2 037
2016/12/05 114 897 +1 093
2016/12/04 113 804 -5 808
2016/12/02 119 612 +713
2016/12/01 118 899 +4 650
2016/11/30 114 249 +123
2016/11/29 114 126 -12 253
2016/11/28 126 379 -4 910
2016/11/27 131 289 +1 237
2016/11/26 130 052 -1 260
2016/11/25 131 312 -3 045
2016/11/24 134 357 +398
2016/11/23 133 959 -17 049
2016/11/19 151 008 +3 581
2016/11/18 147 427 +1 483
2016/11/17 145 944 +8 847
2016/11/16 137 097 -4 841
2016/11/15 141 938 -13 525
2016/11/14 155 463 -6 978
2016/11/13 162 441 -7 190
2016/11/12 169 631 -6 377
2016/11/11 176 008 +1 174
2016/11/10 174 834 +293
2016/11/09 174 541 -2 989
2016/11/08 177 530 -7 624
2016/11/07 185 154 -11 433
2016/11/06 196 587 +1 368
2016/11/05 195 219 -3 150
2016/11/04 198 369 -1 583
2016/11/03 199 952 -886
2016/11/02 200 838 -104
2016/11/01 200 942 -9 473
2016/10/31 210 415 -4 325
2016/10/30 214 740 -22
2016/10/29 214 762 -124
2016/10/28 214 886 +2 364
2016/10/27 212 522 +1 731
2016/10/26 210 791 +7 374
2016/10/25 203 417 +2 999
2016/10/24 200 418 -4 302
2016/10/23 204 720 +4 620
2016/10/22 200 100 +8 429
2016/10/21 191 671 +3 049
2016/10/20 188 622 -2 734
2016/10/19 191 356 -11 096
2016/10/18 202 452 -1 187
2016/10/17 203 639 -16 115
2016/10/16 219 754 +4 094
2016/10/15 215 660 +72 765
2016/10/14 142 895 +119
2016/10/13 142 776 +2 549
2016/10/12 140 227 +3 426
2016/10/11 136 801 -1 707
2016/10/10 138 508 +161
2016/10/09 138 347 +3 340
2016/10/08 135 007 -47 026
2016/10/07 182 033

WIDGET FOR YOUR SITE

DOMAINS WITH THE NEAREST RANK

Domain Rank
bloggertemplates20.com 112 855
nisolo.com 112 856
outerspace-software.com 112 857
qqtouxiangzq.com 112 858
aidewindows.net 112 859
pixelpapercraft.com 112 860
fmradio-online.ru 112 861
muccashop.com.br 112 862
rdfo.ru 112 863
fibertel.com.ar 112 864
crazyandhorny.com 112 865

DOMAINS WITH THE NEAREST RANK BY TLD .com

Domain Rank
gfmlink.com 112 853
bloggertemplates20.com 112 855
nisolo.com 112 856
outerspace-software.com 112 857
qqtouxiangzq.com 112 858
pixelpapercraft.com 112 860
crazyandhorny.com 112 865
nppsy.com 112 867
fapteentube.com 112 868
sprfflt.com 112 869
unitoperation.com 112 871